sensor_id;sensor_type;location;lat;lon;timestamp;P1;durP1;ratioP1;P2;durP2;ratioP2
51459;SDS011;37534;39.772;2.718;2023-09-19T00:00:21;5.93;;;5.22;;
51459;SDS011;37534;39.772;2.718;2023-09-19T00:02:56;7.07;;;5.90;;
51459;SDS011;37534;39.772;2.718;2023-09-19T00:05:25;5.00;;;4.55;;
51459;SDS011;37534;39.772;2.718;2023-09-19T00:07:53;6.13;;;5.10;;
51459;SDS011;37534;39.772;2.718;2023-09-19T00:10:20;14.45;;;5.20;;
51459;SDS011;37534;39.772;2.718;2023-09-19T00:12:49;5.40;;;4.90;;
51459;SDS011;37534;39.772;2.718;2023-09-19T00:15:17;6.13;;;5.38;;
51459;SDS011;37534;39.772;2.718;2023-09-19T00:17:43;5.95;;;5.35;;
51459;SDS011;37534;39.772;2.718;2023-09-19T00:20:09;6.97;;;5.63;;
51459;SDS011;37534;39.772;2.718;2023-09-19T00:22:41;6.15;;;5.50;;
51459;SDS011;37534;39.772;2.718;2023-09-19T00:25:10;6.65;;;5.18;;
51459;SDS011;37534;39.772;2.718;2023-09-19T00:27:37;9.57;;;5.85;;
51459;SDS011;37534;39.772;2.718;2023-09-19T00:30:07;8.10;;;5.82;;
51459;SDS011;37534;39.772;2.718;2023-09-19T00:32:39;8.57;;;5.72;;
51459;SDS011;37534;39.772;2.718;2023-09-19T00:35:05;7.63;;;5.00;;
51459;SDS011;37534;39.772;2.718;2023-09-19T00:37:31;4.85;;;4.45;;
51459;SDS011;37534;39.772;2.718;2023-09-19T00:39:56;8.02;;;5.53;;
51459;SDS011;37534;39.772;2.718;2023-09-19T00:42:22;7.75;;;5.20;;
51459;SDS011;37534;39.772;2.718;2023-09-19T00:44:47;7.07;;;4.82;;
51459;SDS011;37534;39.772;2.718;2023-09-19T00:47:16;9.32;;;5.57;;
51459;SDS011;37534;39.772;2.718;2023-09-19T00:49:44;6.72;;;5.25;;
51459;SDS011;37534;39.772;2.718;2023-09-19T00:52:15;20.05;;;6.40;;
51459;SDS011;37534;39.772;2.718;2023-09-19T00:54:46;7.55;;;6.07;;
51459;SDS011;37534;39.772;2.718;2023-09-19T00:57:13;8.20;;;5.82;;
51459;SDS011;37534;39.772;2.718;2023-09-19T00:59:40;6.30;;;5.25;;
51459;SDS011;37534;39.772;2.718;2023-09-19T01:02:07;6.07;;;4.95;;
51459;SDS011;37534;39.772;2.718;2023-09-19T01:04:33;5.03;;;4.53;;
51459;SDS011;37534;39.772;2.718;2023-09-19T01:06:59;5.40;;;4.63;;
51459;SDS011;37534;39.772;2.718;2023-09-19T01:09:25;7.05;;;5.13;;
51459;SDS011;37534;39.772;2.718;2023-09-19T01:11:53;6.40;;;4.53;;
51459;SDS011;37534;39.772;2.718;2023-09-19T01:17:30;6.60;;;4.10;;
51459;SDS011;37534;39.772;2.718;2023-09-19T01:20:03;7.40;;;5.45;;
51459;SDS011;37534;39.772;2.718;2023-09-19T01:31:09;6.72;;;5.40;;
51459;SDS011;37534;39.772;2.718;2023-09-19T01:33:55;10.35;;;5.40;;
51459;SDS011;37534;39.772;2.718;2023-09-19T01:36:28;11.77;;;5.93;;
51459;SDS011;37534;39.772;2.718;2023-09-19T01:39:01;8.65;;;5.30;;
51459;SDS011;37534;39.772;2.718;2023-09-19T01:44:29;7.35;;;5.35;;
51459;SDS011;37534;39.772;2.718;2023-09-19T01:47:13;11.15;;;5.68;;
51459;SDS011;37534;39.772;2.718;2023-09-19T01:49:55;5.60;;;5.03;;
51459;SDS011;37534;39.772;2.718;2023-09-19T01:52:28;6.35;;;5.40;;
51459;SDS011;37534;39.772;2.718;2023-09-19T01:55:00;4.95;;;4.28;;
51459;SDS011;37534;39.772;2.718;2023-09-19T02:00:23;5.80;;;4.90;;
51459;SDS011;37534;39.772;2.718;2023-09-19T02:02:51;5.32;;;4.82;;
51459;SDS011;37534;39.772;2.718;2023-09-19T02:05:24;6.95;;;4.78;;
51459;SDS011;37534;39.772;2.718;2023-09-19T02:07:51;12.80;;;5.47;;
51459;SDS011;37534;39.772;2.718;2023-09-19T02:10:18;4.90;;;4.50;;
51459;SDS011;37534;39.772;2.718;2023-09-19T02:12:43;4.57;;;4.15;;
51459;SDS011;37534;39.772;2.718;2023-09-19T02:15:10;6.45;;;4.82;;
51459;SDS011;37534;39.772;2.718;2023-09-19T02:17:35;6.82;;;4.72;;
51459;SDS011;37534;39.772;2.718;2023-09-19T02:20:01;5.32;;;4.82;;
51459;SDS011;37534;39.772;2.718;2023-09-19T02:22:28;5.03;;;3.72;;
51459;SDS011;37534;39.772;2.718;2023-09-19T02:24:54;6.13;;;4.15;;
51459;SDS011;37534;39.772;2.718;2023-09-19T02:27:23;3.50;;;3.25;;
51459;SDS011;37534;39.772;2.718;2023-09-19T02:29:49;3.65;;;3.35;;
51459;SDS011;37534;39.772;2.718;2023-09-19T02:32:14;6.28;;;3.83;;
51459;SDS011;37534;39.772;2.718;2023-09-19T02:34:43;6.80;;;3.95;;
51459;SDS011;37534;39.772;2.718;2023-09-19T02:37:09;4.55;;;3.88;;
51459;SDS011;37534;39.772;2.718;2023-09-19T02:39:35;4.57;;;3.92;;
51459;SDS011;37534;39.772;2.718;2023-09-19T02:42:01;4.72;;;3.58;;
51459;SDS011;37534;39.772;2.718;2023-09-19T02:44:29;9.25;;;3.88;;
51459;SDS011;37534;39.772;2.718;2023-09-19T02:46:54;7.25;;;3.38;;
51459;SDS011;37534;39.772;2.718;2023-09-19T02:49:22;9.07;;;3.55;;
51459;SDS011;37534;39.772;2.718;2023-09-19T02:51:48;4.10;;;3.67;;
51459;SDS011;37534;39.772;2.718;2023-09-19T02:54:13;5.47;;;4.07;;
51459;SDS011;37534;39.772;2.718;2023-09-19T02:56:40;3.80;;;3.50;;
51459;SDS011;37534;39.772;2.718;2023-09-19T02:59:05;7.20;;;4.80;;
51459;SDS011;37534;39.772;2.718;2023-09-19T03:01:32;4.88;;;4.40;;
51459;SDS011;37534;39.772;2.718;2023-09-19T03:03:58;6.68;;;4.28;;
51459;SDS011;37534;39.772;2.718;2023-09-19T03:06:24;4.90;;;3.90;;
51459;SDS011;37534;39.772;2.718;2023-09-19T03:08:50;4.38;;;3.97;;
51459;SDS011;37534;39.772;2.718;2023-09-19T03:11:16;6.60;;;4.28;;
51459;SDS011;37534;39.772;2.718;2023-09-19T03:13:50;7.03;;;4.75;;
51459;SDS011;37534;39.772;2.718;2023-09-19T03:16:16;4.20;;;3.80;;
51459;SDS011;37534;39.772;2.718;2023-09-19T03:18:41;4.22;;;3.78;;
51459;SDS011;37534;39.772;2.718;2023-09-19T03:21:07;10.68;;;6.00;;
51459;SDS011;37534;39.772;2.718;2023-09-19T03:23:33;5.22;;;4.45;;
51459;SDS011;37534;39.772;2.718;2023-09-19T03:25:58;7.35;;;4.97;;
51459;SDS011;37534;39.772;2.718;2023-09-19T03:28:24;6.25;;;3.75;;
51459;SDS011;37534;39.772;2.718;2023-09-19T03:31:02;5.07;;;3.72;;
51459;SDS011;37534;39.772;2.718;2023-09-19T03:33:30;4.95;;;3.80;;
51459;SDS011;37534;39.772;2.718;2023-09-19T03:35:59;6.85;;;4.68;;
51459;SDS011;37534;39.772;2.718;2023-09-19T03:38:26;4.38;;;3.97;;
51459;SDS011;37534;39.772;2.718;2023-09-19T03:40:54;5.00;;;3.75;;
51459;SDS011;37534;39.772;2.718;2023-09-19T03:43:19;4.43;;;3.70;;
51459;SDS011;37534;39.772;2.718;2023-09-19T03:45:45;8.80;;;3.92;;
51459;SDS011;37534;39.772;2.718;2023-09-19T03:48:11;6.15;;;3.85;;
51459;SDS011;37534;39.772;2.718;2023-09-19T03:50:38;7.47;;;4.35;;
51459;SDS011;37534;39.772;2.718;2023-09-19T03:53:04;5.63;;;4.00;;
51459;SDS011;37534;39.772;2.718;2023-09-19T03:55:31;4.10;;;3.72;;
51459;SDS011;37534;39.772;2.718;2023-09-19T03:57:57;5.15;;;4.28;;
51459;SDS011;37534;39.772;2.718;2023-09-19T04:00:23;3.42;;;3.13;;
51459;SDS011;37534;39.772;2.718;2023-09-19T04:02:51;4.30;;;3.90;;
51459;SDS011;37534;39.772;2.718;2023-09-19T04:05:18;6.43;;;4.18;;
51459;SDS011;37534;39.772;2.718;2023-09-19T04:07:43;4.07;;;3.78;;
51459;SDS011;37534;39.772;2.718;2023-09-19T04:10:09;4.85;;;3.95;;
51459;SDS011;37534;39.772;2.718;2023-09-19T04:12:36;9.70;;;5.43;;
51459;SDS011;37534;39.772;2.718;2023-09-19T04:15:02;5.13;;;4.45;;
51459;SDS011;37534;39.772;2.718;2023-09-19T04:17:28;6.85;;;5.80;;
51459;SDS011;37534;39.772;2.718;2023-09-19T04:19:54;7.18;;;4.50;;
51459;SDS011;37534;39.772;2.718;2023-09-19T04:22:19;7.13;;;5.22;;
51459;SDS011;37534;39.772;2.718;2023-09-19T04:24:45;8.70;;;4.90;;
51459;SDS011;37534;39.772;2.718;2023-09-19T04:27:10;6.95;;;6.10;;
51459;SDS011;37534;39.772;2.718;2023-09-19T04:29:39;6.18;;;5.45;;
51459;SDS011;37534;39.772;2.718;2023-09-19T04:32:06;7.03;;;6.43;;
51459;SDS011;37534;39.772;2.718;2023-09-19T04:34:33;5.97;;;5.40;;
51459;SDS011;37534;39.772;2.718;2023-09-19T04:36:59;6.82;;;6.00;;
51459;SDS011;37534;39.772;2.718;2023-09-19T04:39:26;5.40;;;4.88;;
51459;SDS011;37534;39.772;2.718;2023-09-19T04:41:52;6.88;;;5.78;;
51459;SDS011;37534;39.772;2.718;2023-09-19T04:44:18;8.70;;;6.82;;
51459;SDS011;37534;39.772;2.718;2023-09-19T04:46:44;5.72;;;5.15;;
51459;SDS011;37534;39.772;2.718;2023-09-19T04:49:11;6.88;;;6.20;;
51459;SDS011;37534;39.772;2.718;2023-09-19T04:51:39;7.53;;;5.03;;
51459;SDS011;37534;39.772;2.718;2023-09-19T04:54:05;7.85;;;4.70;;
51459;SDS011;37534;39.772;2.718;2023-09-19T04:56:31;13.80;;;4.90;;
51459;SDS011;37534;39.772;2.718;2023-09-19T04:58:57;5.47;;;4.95;;
51459;SDS011;37534;39.772;2.718;2023-09-19T05:01:24;4.80;;;3.50;;
51459;SDS011;37534;39.772;2.718;2023-09-19T05:03:50;4.00;;;3.65;;
51459;SDS011;37534;39.772;2.718;2023-09-19T05:06:20;6.68;;;4.60;;
51459;SDS011;37534;39.772;2.718;2023-09-19T05:08:50;4.95;;;4.45;;
51459;SDS011;37534;39.772;2.718;2023-09-19T05:11:16;5.72;;;4.80;;
51459;SDS011;37534;39.772;2.718;2023-09-19T05:13:42;4.97;;;4.53;;
51459;SDS011;37534;39.772;2.718;2023-09-19T05:16:08;4.57;;;4.03;;
51459;SDS011;37534;39.772;2.718;2023-09-19T05:18:35;6.85;;;3.72;;
51459;SDS011;37534;39.772;2.718;2023-09-19T05:21:04;5.55;;;4.60;;
51459;SDS011;37534;39.772;2.718;2023-09-19T05:23:30;7.18;;;4.63;;
51459;SDS011;37534;39.772;2.718;2023-09-19T05:25:56;5.18;;;4.45;;
51459;SDS011;37534;39.772;2.718;2023-09-19T05:28:25;6.85;;;4.28;;
51459;SDS011;37534;39.772;2.718;2023-09-19T05:30:52;4.85;;;4.18;;
51459;SDS011;37534;39.772;2.718;2023-09-19T05:33:18;8.52;;;5.47;;
51459;SDS011;37534;39.772;2.718;2023-09-19T05:35:44;7.22;;;5.72;;
51459;SDS011;37534;39.772;2.718;2023-09-19T05:38:12;6.45;;;4.95;;
51459;SDS011;37534;39.772;2.718;2023-09-19T05:40:38;5.25;;;4.53;;
51459;SDS011;37534;39.772;2.718;2023-09-19T05:43:07;8.57;;;4.47;;
51459;SDS011;37534;39.772;2.718;2023-09-19T05:45:36;5.72;;;4.78;;
51459;SDS011;37534;39.772;2.718;2023-09-19T05:48:12;6.38;;;4.10;;
51459;SDS011;37534;39.772;2.718;2023-09-19T05:50:42;4.47;;;4.05;;
51459;SDS011;37534;39.772;2.718;2023-09-19T05:53:08;3.97;;;3.55;;
51459;SDS011;37534;39.772;2.718;2023-09-19T05:55:37;13.20;;;4.60;;
51459;SDS011;37534;39.772;2.718;2023-09-19T05:58:02;7.68;;;4.50;;
51459;SDS011;37534;39.772;2.718;2023-09-19T06:00:29;4.03;;;3.70;;
51459;SDS011;37534;39.772;2.718;2023-09-19T06:02:57;5.07;;;4.25;;
51459;SDS011;37534;39.772;2.718;2023-09-19T06:05:24;5.80;;;3.78;;
51459;SDS011;37534;39.772;2.718;2023-09-19T06:07:57;7.35;;;4.38;;
51459;SDS011;37534;39.772;2.718;2023-09-19T06:10:33;11.35;;;4.80;;
51459;SDS011;37534;39.772;2.718;2023-09-19T06:13:00;5.25;;;3.88;;
51459;SDS011;37534;39.772;2.718;2023-09-19T06:15:29;7.40;;;4.93;;
51459;SDS011;37534;39.772;2.718;2023-09-19T06:17:57;5.28;;;4.78;;
51459;SDS011;37534;39.772;2.718;2023-09-19T06:20:24;6.07;;;4.82;;
51459;SDS011;37534;39.772;2.718;2023-09-19T06:22:51;18.02;;;4.43;;
51459;SDS011;37534;39.772;2.718;2023-09-19T06:25:18;6.70;;;4.80;;
51459;SDS011;37534;39.772;2.718;2023-09-19T06:30:20;7.80;;;5.00;;
51459;SDS011;37534;39.772;2.718;2023-09-19T06:32:46;7.05;;;5.15;;
51459;SDS011;37534;39.772;2.718;2023-09-19T06:35:12;12.45;;;5.47;;
51459;SDS011;37534;39.772;2.718;2023-09-19T06:37:39;19.27;;;6.53;;
51459;SDS011;37534;39.772;2.718;2023-09-19T06:42:39;12.55;;;5.78;;
51459;SDS011;37534;39.772;2.718;2023-09-19T06:45:27;15.55;;;5.63;;
51459;SDS011;37534;39.772;2.718;2023-09-19T06:47:53;7.10;;;4.47;;
51459;SDS011;37534;39.772;2.718;2023-09-19T06:50:22;8.20;;;3.88;;
51459;SDS011;37534;39.772;2.718;2023-09-19T06:52:50;14.57;;;5.25;;
51459;SDS011;37534;39.772;2.718;2023-09-19T06:55:17;6.00;;;4.75;;
51459;SDS011;37534;39.772;2.718;2023-09-19T06:57:45;14.45;;;8.48;;
51459;SDS011;37534;39.772;2.718;2023-09-19T07:00:13;16.05;;;13.07;;
51459;SDS011;37534;39.772;2.718;2023-09-19T07:05:29;23.10;;;16.00;;
51459;SDS011;37534;39.772;2.718;2023-09-19T07:07:56;29.48;;;19.52;;
51459;SDS011;37534;39.772;2.718;2023-09-19T07:10:26;25.75;;;17.70;;
51459;SDS011;37534;39.772;2.718;2023-09-19T07:15:29;35.75;;;26.90;;
51459;SDS011;37534;39.772;2.718;2023-09-19T07:17:58;39.85;;;28.52;;
51459;SDS011;37534;39.772;2.718;2023-09-19T07:20:25;32.65;;;20.38;;
51459;SDS011;37534;39.772;2.718;2023-09-19T07:22:52;20.55;;;13.82;;
51459;SDS011;37534;39.772;2.718;2023-09-19T07:25:19;27.75;;;16.13;;
51459;SDS011;37534;39.772;2.718;2023-09-19T07:27:46;19.30;;;14.63;;
51459;SDS011;37534;39.772;2.718;2023-09-19T07:30:11;21.20;;;14.82;;
51459;SDS011;37534;39.772;2.718;2023-09-19T07:32:37;20.77;;;17.38;;
51459;SDS011;37534;39.772;2.718;2023-09-19T07:35:03;45.22;;;19.90;;
51459;SDS011;37534;39.772;2.718;2023-09-19T07:37:31;30.55;;;17.25;;
51459;SDS011;37534;39.772;2.718;2023-09-19T07:39:58;32.30;;;22.55;;
51459;SDS011;37534;39.772;2.718;2023-09-19T07:42:25;53.88;;;24.58;;
51459;SDS011;37534;39.772;2.718;2023-09-19T07:44:51;55.95;;;25.00;;
51459;SDS011;37534;39.772;2.718;2023-09-19T07:47:16;50.78;;;23.13;;
51459;SDS011;37534;39.772;2.718;2023-09-19T07:49:42;28.65;;;20.70;;
51459;SDS011;37534;39.772;2.718;2023-09-19T07:52:08;23.17;;;17.08;;
51459;SDS011;37534;39.772;2.718;2023-09-19T07:54:35;24.33;;;16.05;;
51459;SDS011;37534;39.772;2.718;2023-09-19T07:57:02;18.48;;;14.32;;
51459;SDS011;37534;39.772;2.718;2023-09-19T07:59:27;19.23;;;12.98;;
51459;SDS011;37534;39.772;2.718;2023-09-19T08:01:53;24.90;;;13.15;;
51459;SDS011;37534;39.772;2.718;2023-09-19T08:04:19;18.27;;;11.82;;
51459;SDS011;37534;39.772;2.718;2023-09-19T08:06:45;21.38;;;10.85;;
51459;SDS011;37534;39.772;2.718;2023-09-19T08:09:11;15.30;;;10.15;;
51459;SDS011;37534;39.772;2.718;2023-09-19T08:11:39;20.90;;;8.63;;
51459;SDS011;37534;39.772;2.718;2023-09-19T08:14:04;52.72;;;34.30;;
51459;SDS011;37534;39.772;2.718;2023-09-19T08:16:32;107.32;;;68.70;;
51459;SDS011;37534;39.772;2.718;2023-09-19T08:18:58;45.78;;;27.65;;
51459;SDS011;37534;39.772;2.718;2023-09-19T08:21:23;33.75;;;25.90;;
51459;SDS011;37534;39.772;2.718;2023-09-19T08:23:50;72.30;;;53.78;;
51459;SDS011;37534;39.772;2.718;2023-09-19T08:26:16;104.88;;;84.40;;
51459;SDS011;37534;39.772;2.718;2023-09-19T08:28:42;80.55;;;63.80;;
51459;SDS011;37534;39.772;2.718;2023-09-19T08:31:08;75.75;;;60.85;;
51459;SDS011;37534;39.772;2.718;2023-09-19T08:33:34;105.65;;;70.93;;
51459;SDS011;37534;39.772;2.718;2023-09-19T08:36:03;83.28;;;61.85;;
51459;SDS011;37534;39.772;2.718;2023-09-19T08:38:33;46.10;;;35.05;;
51459;SDS011;37534;39.772;2.718;2023-09-19T08:41:01;39.88;;;23.40;;
51459;SDS011;37534;39.772;2.718;2023-09-19T08:43:31;22.97;;;14.47;;
51459;SDS011;37534;39.772;2.718;2023-09-19T08:48:31;21.17;;;14.20;;
51459;SDS011;37534;39.772;2.718;2023-09-19T08:51:00;26.42;;;15.25;;
51459;SDS011;37534;39.772;2.718;2023-09-19T08:53:34;12.85;;;8.65;;
51459;SDS011;37534;39.772;2.718;2023-09-19T08:56:08;11.50;;;8.88;;
51459;SDS011;37534;39.772;2.718;2023-09-19T08:58:44;7.97;;;6.78;;
51459;SDS011;37534;39.772;2.718;2023-09-19T09:01:15;5.68;;;4.30;;
51459;SDS011;37534;39.772;2.718;2023-09-19T09:03:42;14.48;;;5.38;;
51459;SDS011;37534;39.772;2.718;2023-09-19T09:06:13;5.80;;;4.75;;
51459;SDS011;37534;39.772;2.718;2023-09-19T09:08:40;6.30;;;4.80;;
51459;SDS011;37534;39.772;2.718;2023-09-19T09:11:06;7.90;;;6.20;;
51459;SDS011;37534;39.772;2.718;2023-09-19T09:13:34;15.63;;;11.93;;
51459;SDS011;37534;39.772;2.718;2023-09-19T09:16:01;37.38;;;25.40;;
51459;SDS011;37534;39.772;2.718;2023-09-19T09:18:27;23.20;;;14.40;;
51459;SDS011;37534;39.772;2.718;2023-09-19T09:20:55;17.92;;;11.52;;
51459;SDS011;37534;39.772;2.718;2023-09-19T09:23:21;10.85;;;7.32;;
51459;SDS011;37534;39.772;2.718;2023-09-19T09:25:52;7.15;;;4.82;;
51459;SDS011;37534;39.772;2.718;2023-09-19T09:28:25;8.02;;;5.13;;
51459;SDS011;37534;39.772;2.718;2023-09-19T09:33:18;9.50;;;5.25;;
51459;SDS011;37534;39.772;2.718;2023-09-19T09:35:48;5.38;;;4.72;;
51459;SDS011;37534;39.772;2.718;2023-09-19T09:38:21;6.50;;;4.70;;
51459;SDS011;37534;39.772;2.718;2023-09-19T09:40:52;9.90;;;4.50;;
51459;SDS011;37534;39.772;2.718;2023-09-19T09:46:13;5.63;;;3.88;;
51459;SDS011;37534;39.772;2.718;2023-09-19T09:51:39;4.22;;;2.95;;
51459;SDS011;37534;39.772;2.718;2023-09-19T09:54:15;6.05;;;3.75;;
51459;SDS011;37534;39.772;2.718;2023-09-19T09:59:47;4.78;;;3.38;;
51459;SDS011;37534;39.772;2.718;2023-09-19T10:02:25;4.60;;;2.25;;
51459;SDS011;37534;39.772;2.718;2023-09-19T10:04:58;3.13;;;2.83;;
51459;SDS011;37534;39.772;2.718;2023-09-19T10:07:57;2.55;;;2.08;;
51459;SDS011;37534;39.772;2.718;2023-09-19T10:10:40;9.93;;;2.50;;
51459;SDS011;37534;39.772;2.718;2023-09-19T10:13:06;5.30;;;2.25;;
51459;SDS011;37534;39.772;2.718;2023-09-19T10:15:33;3.38;;;2.33;;
51459;SDS011;37534;39.772;2.718;2023-09-19T10:18:03;3.05;;;2.25;;
51459;SDS011;37534;39.772;2.718;2023-09-19T10:23:01;4.05;;;2.40;;
51459;SDS011;37534;39.772;2.718;2023-09-19T10:25:34;3.60;;;2.85;;
51459;SDS011;37534;39.772;2.718;2023-09-19T10:28:02;6.95;;;2.53;;
51459;SDS011;37534;39.772;2.718;2023-09-19T10:30:36;6.18;;;2.47;;
51459;SDS011;37534;39.772;2.718;2023-09-19T10:33:09;3.13;;;2.30;;
51459;SDS011;37534;39.772;2.718;2023-09-19T10:35:37;2.45;;;2.25;;
51459;SDS011;37534;39.772;2.718;2023-09-19T10:38:05;8.50;;;2.67;;
51459;SDS011;37534;39.772;2.718;2023-09-19T10:40:34;7.53;;;2.38;;
51459;SDS011;37534;39.772;2.718;2023-09-19T10:43:04;9.20;;;2.85;;
51459;SDS011;37534;39.772;2.718;2023-09-19T10:45:34;3.15;;;2.08;;
51459;SDS011;37534;39.772;2.718;2023-09-19T10:48:01;2.15;;;1.92;;
51459;SDS011;37534;39.772;2.718;2023-09-19T10:53:17;3.05;;;2.40;;
51459;SDS011;37534;39.772;2.718;2023-09-19T10:55:50;3.30;;;2.78;;
51459;SDS011;37534;39.772;2.718;2023-09-19T10:58:29;6.88;;;2.67;;
51459;SDS011;37534;39.772;2.718;2023-09-19T11:01:00;9.68;;;3.20;;
51459;SDS011;37534;39.772;2.718;2023-09-19T11:03:37;9.90;;;3.35;;
51459;SDS011;37534;39.772;2.718;2023-09-19T11:06:17;8.80;;;3.30;;
51459;SDS011;37534;39.772;2.718;2023-09-19T11:09:00;4.50;;;2.33;;
51459;SDS011;37534;39.772;2.718;2023-09-19T11:14:29;6.05;;;2.97;;
51459;SDS011;37534;39.772;2.718;2023-09-19T11:25:42;14.48;;;3.60;;
51459;SDS011;37534;39.772;2.718;2023-09-19T11:30:50;11.50;;;3.40;;
51459;SDS011;37534;39.772;2.718;2023-09-19T11:49:18;4.95;;;1.70;;
51459;SDS011;37534;39.772;2.718;2023-09-19T11:51:50;9.63;;;2.05;;
51459;SDS011;37534;39.772;2.718;2023-09-19T11:54:19;8.13;;;2.70;;
51459;SDS011;37534;39.772;2.718;2023-09-19T11:56:50;10.93;;;2.95;;
51459;SDS011;37534;39.772;2.718;2023-09-19T12:01:52;6.15;;;3.33;;
51459;SDS011;37534;39.772;2.718;2023-09-19T12:04:34;11.05;;;3.40;;
51459;SDS011;37534;39.772;2.718;2023-09-19T12:07:10;5.55;;;3.05;;
51459;SDS011;37534;39.772;2.718;2023-09-19T12:09:40;14.27;;;4.53;;
51459;SDS011;37534;39.772;2.718;2023-09-19T12:12:27;9.32;;;6.88;;
51459;SDS011;37534;39.772;2.718;2023-09-19T12:14:53;23.63;;;8.30;;
51459;SDS011;37534;39.772;2.718;2023-09-19T12:17:22;6.05;;;3.55;;
51459;SDS011;37534;39.772;2.718;2023-09-19T12:19:52;7.20;;;3.03;;
51459;SDS011;37534;39.772;2.718;2023-09-19T12:22:19;4.55;;;2.30;;
51459;SDS011;37534;39.772;2.718;2023-09-19T12:24:48;6.90;;;3.15;;
51459;SDS011;37534;39.772;2.718;2023-09-19T12:27:15;7.60;;;3.65;;
51459;SDS011;37534;39.772;2.718;2023-09-19T12:32:09;5.97;;;2.78;;
51459;SDS011;37534;39.772;2.718;2023-09-19T12:34:35;4.95;;;2.75;;
51459;SDS011;37534;39.772;2.718;2023-09-19T12:39:47;8.45;;;3.40;;
51459;SDS011;37534;39.772;2.718;2023-09-19T12:42:16;6.53;;;2.80;;
51459;SDS011;37534;39.772;2.718;2023-09-19T12:44:46;7.78;;;2.58;;
51459;SDS011;37534;39.772;2.718;2023-09-19T12:47:15;5.03;;;2.23;;
51459;SDS011;37534;39.772;2.718;2023-09-19T12:52:46;4.38;;;2.35;;
51459;SDS011;37534;39.772;2.718;2023-09-19T12:55:50;8.95;;;2.80;;
51459;SDS011;37534;39.772;2.718;2023-09-19T13:00:41;3.28;;;2.22;;
51459;SDS011;37534;39.772;2.718;2023-09-19T13:03:13;5.25;;;2.83;;
51459;SDS011;37534;39.772;2.718;2023-09-19T13:08:17;8.68;;;2.92;;
51459;SDS011;37534;39.772;2.718;2023-09-19T13:13:34;8.27;;;3.20;;
51459;SDS011;37534;39.772;2.718;2023-09-19T13:18:52;6.88;;;3.08;;
51459;SDS011;37534;39.772;2.718;2023-09-19T13:21:32;8.50;;;3.28;;
51459;SDS011;37534;39.772;2.718;2023-09-19T13:24:18;5.38;;;3.10;;
51459;SDS011;37534;39.772;2.718;2023-09-19T13:26:46;7.25;;;4.18;;
51459;SDS011;37534;39.772;2.718;2023-09-19T13:29:11;12.20;;;3.95;;
51459;SDS011;37534;39.772;2.718;2023-09-19T13:31:37;7.28;;;3.78;;
51459;SDS011;37534;39.772;2.718;2023-09-19T13:34:06;5.90;;;3.75;;
51459;SDS011;37534;39.772;2.718;2023-09-19T13:36:32;8.45;;;3.80;;
51459;SDS011;37534;39.772;2.718;2023-09-19T13:38:58;8.38;;;3.25;;
51459;SDS011;37534;39.772;2.718;2023-09-19T13:41:25;6.47;;;3.33;;
51459;SDS011;37534;39.772;2.718;2023-09-19T13:43:51;4.03;;;2.55;;
51459;SDS011;37534;39.772;2.718;2023-09-19T13:46:17;9.63;;;3.35;;
51459;SDS011;37534;39.772;2.718;2023-09-19T13:48:50;3.67;;;2.83;;
51459;SDS011;37534;39.772;2.718;2023-09-19T13:51:17;5.43;;;3.35;;
51459;SDS011;37534;39.772;2.718;2023-09-19T13:53:44;7.43;;;3.67;;
51459;SDS011;37534;39.772;2.718;2023-09-19T13:56:09;8.73;;;4.55;;
51459;SDS011;37534;39.772;2.718;2023-09-19T13:58:36;7.00;;;4.13;;
51459;SDS011;37534;39.772;2.718;2023-09-19T14:01:01;7.95;;;3.90;;
51459;SDS011;37534;39.772;2.718;2023-09-19T14:03:27;9.98;;;3.80;;
51459;SDS011;37534;39.772;2.718;2023-09-19T14:05:53;9.90;;;4.55;;
51459;SDS011;37534;39.772;2.718;2023-09-19T14:08:19;4.75;;;3.22;;
51459;SDS011;37534;39.772;2.718;2023-09-19T14:10:45;11.73;;;4.85;;
51459;SDS011;37534;39.772;2.718;2023-09-19T14:13:10;4.90;;;3.05;;
51459;SDS011;37534;39.772;2.718;2023-09-19T14:15:38;9.10;;;3.55;;
51459;SDS011;37534;39.772;2.718;2023-09-19T14:18:04;8.65;;;3.20;;
51459;SDS011;37534;39.772;2.718;2023-09-19T14:20:30;5.55;;;2.45;;
51459;SDS011;37534;39.772;2.718;2023-09-19T14:22:56;7.47;;;3.45;;
51459;SDS011;37534;39.772;2.718;2023-09-19T14:25:24;10.35;;;3.50;;
51459;SDS011;37534;39.772;2.718;2023-09-19T14:27:50;8.05;;;2.63;;
51459;SDS011;37534;39.772;2.718;2023-09-19T14:30:26;16.50;;;2.83;;
51459;SDS011;37534;39.772;2.718;2023-09-19T14:32:52;6.18;;;2.80;;
51459;SDS011;37534;39.772;2.718;2023-09-19T14:35:18;20.02;;;3.63;;
51459;SDS011;37534;39.772;2.718;2023-09-19T14:37:44;9.07;;;2.92;;
51459;SDS011;37534;39.772;2.718;2023-09-19T14:40:10;12.05;;;3.05;;
51459;SDS011;37534;39.772;2.718;2023-09-19T14:42:39;19.67;;;3.30;;
51459;SDS011;37534;39.772;2.718;2023-09-19T14:45:05;3.53;;;1.98;;
51459;SDS011;37534;39.772;2.718;2023-09-19T14:47:31;13.30;;;1.77;;
51459;SDS011;37534;39.772;2.718;2023-09-19T14:52:50;1.88;;;1.42;;
51459;SDS011;37534;39.772;2.718;2023-09-19T14:55:32;10.13;;;1.55;;
51459;SDS011;37534;39.772;2.718;2023-09-19T14:58:07;6.30;;;1.60;;
51459;SDS011;37534;39.772;2.718;2023-09-19T15:03:52;3.05;;;1.75;;
51459;SDS011;37534;39.772;2.718;2023-09-19T15:07:13;3.33;;;2.22;;
51459;SDS011;37534;39.772;2.718;2023-09-19T15:09:42;3.22;;;1.40;;
51459;SDS011;37534;39.772;2.718;2023-09-19T15:12:11;1.25;;;1.10;;
51459;SDS011;37534;39.772;2.718;2023-09-19T15:14:39;2.90;;;1.60;;
51459;SDS011;37534;39.772;2.718;2023-09-19T15:17:06;2.15;;;1.35;;
51459;SDS011;37534;39.772;2.718;2023-09-19T15:19:31;3.90;;;2.00;;
51459;SDS011;37534;39.772;2.718;2023-09-19T15:22:00;1.63;;;1.27;;
51459;SDS011;37534;39.772;2.718;2023-09-19T15:24:32;5.90;;;1.48;;
51459;SDS011;37534;39.772;2.718;2023-09-19T15:26:57;2.92;;;1.25;;
51459;SDS011;37534;39.772;2.718;2023-09-19T15:29:23;2.83;;;1.08;;
51459;SDS011;37534;39.772;2.718;2023-09-19T15:31:49;3.10;;;1.25;;
51459;SDS011;37534;39.772;2.718;2023-09-19T15:34:14;1.27;;;0.90;;
51459;SDS011;37534;39.772;2.718;2023-09-19T15:36:41;2.25;;;0.80;;
51459;SDS011;37534;39.772;2.718;2023-09-19T15:39:07;2.50;;;0.95;;
51459;SDS011;37534;39.772;2.718;2023-09-19T15:41:37;0.93;;;0.77;;
51459;SDS011;37534;39.772;2.718;2023-09-19T15:44:04;2.25;;;1.05;;
51459;SDS011;37534;39.772;2.718;2023-09-19T15:46:35;1.98;;;1.35;;
51459;SDS011;37534;39.772;2.718;2023-09-19T15:49:01;4.50;;;1.27;;
51459;SDS011;37534;39.772;2.718;2023-09-19T15:51:28;8.60;;;1.33;;
51459;SDS011;37534;39.772;2.718;2023-09-19T15:53:54;0.95;;;0.80;;
51459;SDS011;37534;39.772;2.718;2023-09-19T15:56:21;1.17;;;0.90;;
51459;SDS011;37534;39.772;2.718;2023-09-19T15:58:48;2.08;;;0.57;;
51459;SDS011;37534;39.772;2.718;2023-09-19T16:01:15;0.60;;;0.57;;
51459;SDS011;37534;39.772;2.718;2023-09-19T16:03:45;1.58;;;0.75;;
51459;SDS011;37534;39.772;2.718;2023-09-19T16:06:18;0.30;;;0.30;;
51459;SDS011;37534;39.772;2.718;2023-09-19T16:08:48;1.98;;;1.50;;
51459;SDS011;37534;39.772;2.718;2023-09-19T16:11:15;2.42;;;1.10;;
51459;SDS011;37534;39.772;2.718;2023-09-19T16:13:42;1.42;;;0.93;;
51459;SDS011;37534;39.772;2.718;2023-09-19T16:16:11;0.68;;;0.68;;
51459;SDS011;37534;39.772;2.718;2023-09-19T16:18:38;2.05;;;0.50;;
51459;SDS011;37534;39.772;2.718;2023-09-19T16:21:04;0.75;;;0.57;;
51459;SDS011;37534;39.772;2.718;2023-09-19T16:23:33;1.98;;;0.90;;
51459;SDS011;37534;39.772;2.718;2023-09-19T16:26:02;2.67;;;0.85;;
51459;SDS011;37534;39.772;2.718;2023-09-19T16:28:31;1.23;;;0.60;;
51459;SDS011;37534;39.772;2.718;2023-09-19T16:31:00;0.80;;;0.70;;
51459;SDS011;37534;39.772;2.718;2023-09-19T16:33:27;5.20;;;0.98;;
51459;SDS011;37534;39.772;2.718;2023-09-19T16:35:54;1.48;;;0.70;;